createdAt,value
2019-04-01T00:01:25.230Z,99.90
2019-04-01T00:03:54.649Z,99.90
2019-04-01T00:06:24.099Z,99.90
2019-04-01T00:08:53.522Z,99.90
2019-04-01T00:11:22.962Z,99.90
2019-04-01T00:13:52.460Z,99.90
2019-04-01T00:16:21.866Z,99.90
2019-04-01T00:19:02.541Z,99.90
2019-04-01T00:21:22.456Z,99.90
2019-04-01T00:23:51.906Z,99.90
2019-04-01T00:26:21.372Z,99.90
2019-04-01T00:28:50.791Z,99.90
2019-04-01T00:31:20.207Z,99.90
2019-04-01T00:33:49.673Z,99.90
2019-04-01T00:36:19.127Z,99.90
2019-04-01T00:38:48.479Z,99.90
2019-04-01T00:41:17.981Z,99.90
2019-04-01T00:43:54.279Z,99.90
2019-04-01T00:46:23.915Z,99.90
2019-04-01T00:48:53.393Z,99.90
2019-04-01T00:51:22.824Z,99.90
2019-04-01T00:53:52.227Z,99.90
2019-04-01T00:56:21.651Z,99.90
2019-04-01T00:58:51.104Z,99.90
2019-04-01T01:01:20.508Z,99.90
2019-04-01T01:03:49.945Z,99.90
2019-04-01T01:06:19.436Z,99.90
2019-04-01T01:08:48.853Z,99.90
2019-04-01T01:11:18.324Z,99.90
2019-04-01T01:13:47.759Z,99.90
2019-04-01T01:16:17.114Z,99.90
2019-04-01T01:18:46.491Z,99.90
2019-04-01T01:21:16.006Z,99.90
2019-04-01T01:23:45.477Z,99.90
2019-04-01T01:26:14.919Z,99.90
2019-04-01T01:28:44.402Z,99.90
2019-04-01T01:31:13.908Z,99.90
2019-04-01T01:33:43.342Z,99.90
2019-04-01T01:36:12.776Z,99.90
2019-04-01T01:38:42.243Z,99.90
2019-04-01T01:41:11.676Z,99.90
2019-04-01T01:43:41.046Z,99.90
2019-04-01T01:46:10.433Z,99.90
2019-04-01T01:48:39.848Z,99.90
2019-04-01T01:51:09.319Z,99.90
2019-04-01T01:53:41.488Z,99.90
2019-04-01T01:56:09.869Z,99.90
2019-04-01T01:58:39.226Z,99.90
2019-04-01T02:01:08.674Z,99.90
2019-04-01T02:03:38.112Z,99.90
2019-04-01T02:06:07.477Z,99.90
2019-04-01T02:08:36.862Z,99.90
2019-04-01T02:11:06.328Z,99.90
2019-04-01T02:13:35.707Z,99.90
2019-04-01T02:16:05.063Z,99.90
2019-04-01T02:18:34.502Z,99.90
2019-04-01T02:21:03.872Z,99.90
2019-04-01T02:23:33.232Z,99.90
2019-04-01T02:26:02.931Z,99.90
2019-04-01T02:28:32.375Z,99.90
2019-04-01T02:31:01.818Z,99.90
2019-04-01T02:33:31.231Z,99.90
2019-04-01T02:36:00.759Z,99.90
2019-04-01T02:38:30.186Z,99.90
2019-04-01T02:40:59.601Z,99.90
2019-04-01T02:43:29.046Z,99.90
2019-04-01T02:45:58.494Z,99.90
2019-04-01T02:48:27.961Z,99.90
2019-04-01T02:50:57.439Z,99.90
2019-04-01T02:53:26.907Z,99.90
2019-04-01T02:55:56.338Z,99.90
2019-04-01T02:58:25.765Z,99.90
2019-04-01T03:00:55.250Z,99.90
2019-04-01T03:03:24.780Z,99.90
2019-04-01T03:05:54.361Z,99.90
2019-04-01T03:08:23.825Z,99.90
2019-04-01T03:10:53.312Z,99.90
2019-04-01T03:13:22.781Z,99.90
2019-04-01T03:15:52.203Z,99.90
2019-04-01T03:18:21.634Z,99.90
2019-04-01T03:20:51.099Z,99.90
2019-04-01T03:23:20.561Z,99.90
2019-04-01T03:25:50.094Z,99.90
2019-04-01T03:28:19.565Z,99.90
2019-04-01T03:30:48.976Z,99.90
2019-04-01T03:33:18.435Z,99.90
2019-04-01T03:35:47.871Z,99.90
2019-04-01T03:38:17.333Z,99.90
2019-04-01T03:40:48.988Z,99.90
2019-04-01T03:43:18.383Z,99.90
2019-04-01T03:45:47.818Z,99.90
2019-04-01T03:48:17.280Z,99.90
2019-04-01T03:50:46.719Z,99.90
2019-04-01T03:53:16.145Z,99.90
2019-04-01T03:55:45.614Z,99.90
2019-04-01T03:58:15.058Z,99.90
2019-04-01T04:00:44.421Z,99.90
2019-04-01T04:03:13.775Z,99.90
2019-04-01T04:05:43.232Z,99.90
2019-04-01T04:08:12.695Z,99.90
2019-04-01T04:10:42.142Z,99.90
2019-04-01T04:13:11.594Z,99.90
2019-04-01T04:15:41.029Z,99.90
2019-04-01T04:18:10.543Z,99.90
2019-04-01T04:20:40.037Z,99.90
2019-04-01T04:23:09.567Z,99.90
2019-04-01T04:25:39.041Z,99.90
2019-04-01T04:28:08.474Z,99.90
2019-04-01T04:30:37.958Z,99.90
2019-04-01T04:33:07.394Z,99.90
2019-04-01T04:35:36.851Z,99.90
2019-04-01T04:38:06.313Z,99.90
2019-04-01T04:40:35.716Z,99.90
2019-04-01T04:43:05.189Z,99.90
2019-04-01T04:45:34.851Z,99.90
2019-04-01T04:48:04.293Z,99.90
2019-04-01T04:50:33.799Z,99.90
2019-04-01T04:53:03.369Z,99.90
2019-04-01T04:55:32.857Z,99.90
2019-04-01T04:58:02.381Z,99.90
2019-04-01T05:00:31.777Z,99.90
2019-04-01T05:03:01.287Z,99.90
2019-04-01T05:05:30.933Z,99.90
2019-04-01T05:08:00.486Z,99.90
2019-04-01T05:10:29.953Z,99.90
2019-04-01T05:13:01.041Z,99.90
2019-04-01T05:15:30.564Z,99.90
2019-04-01T05:18:03.614Z,99.90
2019-04-01T05:20:33.182Z,99.90
2019-04-01T05:23:04.397Z,99.90
2019-04-01T05:25:33.928Z,99.90
2019-04-01T05:28:05.110Z,99.90
2019-04-01T05:40:29.911Z,99.90
2019-04-01T05:43:02.422Z,99.90
2019-04-01T05:45:33.140Z,99.90
2019-04-01T05:48:26.519Z,99.90
2019-04-01T05:57:13.398Z,99.90
2019-04-01T05:59:41.192Z,99.90
2019-04-01T06:02:10.957Z,99.90
2019-04-01T06:04:40.661Z,99.90
2019-04-01T06:07:10.378Z,99.90
2019-04-01T06:09:40.219Z,99.90
2019-04-01T06:12:10.579Z,99.90
2019-04-01T06:14:40.233Z,99.90
2019-04-01T06:17:11.175Z,99.90
2019-04-01T06:19:42.466Z,99.90
2019-04-01T06:22:11.807Z,99.90
2019-04-01T06:24:41.140Z,99.90
2019-04-01T06:27:11.170Z,99.90
2019-04-01T06:29:41.110Z,99.90
2019-04-01T06:32:10.412Z,99.90
2019-04-01T06:34:52.314Z,99.90
2019-04-01T06:37:10.934Z,99.90
2019-04-01T06:39:40.652Z,99.90
2019-04-01T06:42:09.963Z,99.90
2019-04-01T06:44:39.275Z,99.90
2019-04-01T06:47:08.608Z,99.90
2019-04-01T06:49:37.910Z,99.90
2019-04-01T06:52:07.367Z,99.90
2019-04-01T06:54:36.723Z,99.90
2019-04-01T06:57:08.594Z,99.90
2019-04-01T06:59:38.087Z,99.90
2019-04-01T07:02:07.376Z,99.90
2019-04-01T07:04:37.300Z,99.90
2019-04-01T07:07:18.142Z,99.90
2019-04-01T07:09:37.975Z,99.90
2019-04-01T07:12:10.270Z,99.90
2019-04-01T07:14:39.629Z,99.90
2019-04-01T07:17:08.929Z,99.90
2019-04-01T07:19:38.429Z,99.90
2019-04-01T07:22:09.093Z,99.90
2019-04-01T07:24:39.576Z,99.90
2019-04-01T07:27:10.052Z,99.90
2019-04-01T07:29:40.960Z,99.90
2019-04-01T07:32:10.301Z,99.90
2019-04-01T07:34:39.592Z,99.90
2019-04-01T07:37:08.919Z,99.90
2019-04-01T07:39:38.204Z,99.90
2019-04-01T07:42:08.385Z,99.90
2019-04-01T07:44:38.384Z,99.90
2019-04-01T07:47:08.038Z,99.90
2019-04-01T07:49:37.956Z,99.90
2019-04-01T07:52:07.971Z,99.90
2019-04-01T07:55:30.236Z,99.90
2019-04-01T08:04:46.982Z,99.90
2019-04-01T08:14:09.760Z,99.90
2019-04-01T08:16:49.830Z,99.90
2019-04-01T08:19:33.114Z,99.90
2019-04-01T08:22:11.909Z,99.90
2019-04-01T08:24:55.227Z,99.90
2019-04-01T08:27:32.414Z,99.90
2019-04-01T08:30:03.382Z,99.90
2019-04-01T08:32:33.286Z,99.90
2019-04-01T08:35:05.484Z,99.90
2019-04-01T08:37:40.841Z,99.90
2019-04-01T08:43:42.188Z,99.90
2019-04-01T08:45:59.548Z,99.90
2019-04-01T08:48:29.537Z,99.90
2019-04-01T08:50:59.286Z,99.90
2019-04-01T08:53:32.555Z,99.90
2019-04-01T08:56:02.376Z,99.90
2019-04-01T08:58:32.464Z,99.90
2019-04-01T09:01:02.661Z,99.90
2019-04-01T09:03:32.351Z,99.90
2019-04-01T09:06:02.960Z,99.90
2019-04-01T09:08:34.687Z,99.90
2019-04-01T09:11:04.599Z,99.90
2019-04-01T09:13:34.502Z,99.90
2019-04-01T09:16:04.805Z,99.90
2019-04-01T09:18:34.645Z,99.90
2019-04-01T09:21:07.287Z,99.90
2019-04-01T09:23:38.046Z,99.90
2019-04-01T09:26:10.161Z,99.90
2019-04-01T09:28:40.112Z,99.90
2019-04-01T09:31:11.071Z,99.90
2019-04-01T09:34:25.792Z,99.90
2019-04-01T09:36:56.186Z,99.90
2019-04-01T09:39:26.410Z,99.90
2019-04-01T09:41:59.146Z,98.90
2019-04-01T09:44:37.070Z,98.50
2019-04-01T09:47:02.649Z,98.70
2019-04-01T09:49:34.175Z,99.70
2019-04-01T09:52:05.118Z,97.80
2019-04-01T09:54:34.882Z,97.80
2019-04-01T09:57:16.812Z,97.00
2019-04-01T09:59:37.007Z,98.40
2019-04-01T10:02:06.675Z,99.60
2019-04-01T10:04:36.349Z,97.20
2019-04-01T10:07:06.143Z,97.40
2019-04-01T10:09:35.712Z,96.30
2019-04-01T10:12:05.603Z,95.30
2019-04-01T10:14:36.362Z,94.20
2019-04-01T10:17:06.592Z,95.30
2019-04-01T10:19:37.522Z,94.20
2019-04-01T10:22:06.916Z,94.90
2019-04-01T10:24:36.424Z,93.90
2019-04-01T10:27:06.348Z,93.80
2019-04-01T10:29:35.836Z,92.90
2019-04-01T10:32:05.601Z,92.10
2019-04-01T10:34:35.225Z,91.30
2019-04-01T10:37:04.748Z,91.20
2019-04-01T10:39:36.937Z,90.40
2019-04-01T10:42:06.401Z,90.90
2019-04-01T10:44:37.317Z,89.30
2019-04-01T10:47:09.373Z,91.00
2019-04-01T10:49:39.067Z,88.70
2019-04-01T10:52:08.689Z,86.00
2019-04-01T10:54:40.395Z,84.50
2019-04-01T10:57:09.920Z,87.90
2019-04-01T10:59:42.026Z,86.50
2019-04-01T11:02:11.511Z,85.00
2019-04-01T11:04:42.666Z,85.50
2019-04-01T11:07:32.615Z,86.40
2019-04-01T11:10:04.585Z,84.80
2019-04-01T11:12:33.956Z,84.70
2019-04-01T11:15:03.943Z,84.60
2019-04-01T11:17:34.841Z,89.20
2019-04-01T11:20:08.477Z,90.20
2019-04-01T11:22:38.041Z,85.00
2019-04-01T11:25:07.542Z,86.50
2019-04-01T11:27:38.910Z,79.00
2019-04-01T11:30:09.028Z,83.40
2019-04-01T11:32:40.162Z,79.30
2019-04-01T11:35:10.169Z,82.90
2019-04-01T11:37:39.638Z,79.90
2019-04-01T11:40:11.586Z,77.20
2019-04-01T11:42:41.742Z,75.70
2019-04-01T11:45:11.902Z,74.60
2019-04-01T11:47:41.739Z,75.40
2019-04-01T11:50:12.404Z,75.20
2019-04-01T11:52:42.005Z,80.00
2019-04-01T11:55:11.615Z,78.30
2019-04-01T11:57:41.115Z,72.70
2019-04-01T12:00:15.183Z,71.00
2019-04-01T12:02:46.301Z,71.80
2019-04-01T12:05:16.010Z,79.00
2019-04-01T12:07:47.988Z,79.40
2019-04-01T12:10:17.527Z,76.30
2019-04-01T12:12:48.945Z,70.90
2019-04-01T12:15:20.427Z,69.60
2019-04-01T12:17:49.877Z,69.10
2019-04-01T12:20:20.381Z,72.10
2019-04-01T12:22:49.934Z,67.90
2019-04-01T12:25:19.388Z,77.70
2019-04-01T12:27:50.634Z,76.10
2019-04-01T12:30:20.236Z,71.90
2019-04-01T12:32:49.754Z,67.00
2019-04-01T12:35:19.700Z,67.70
2019-04-01T12:37:50.136Z,68.00
2019-04-01T12:40:21.716Z,71.90
2019-04-01T12:42:51.076Z,72.70
2019-04-01T12:45:22.012Z,67.20
2019-04-01T12:47:51.676Z,66.10
2019-04-01T12:50:21.384Z,65.00
2019-04-01T12:52:51.822Z,66.80
2019-04-01T12:55:21.359Z,66.70
2019-04-01T12:57:51.244Z,66.70
2019-04-01T13:00:22.248Z,67.20
2019-04-01T13:02:52.002Z,66.70
2019-04-01T13:05:22.706Z,68.30
2019-04-01T13:07:54.123Z,68.10
2019-04-01T13:10:23.524Z,67.20
2019-04-01T13:12:54.276Z,66.70
2019-04-01T13:15:24.100Z,67.10
2019-04-01T13:17:53.711Z,65.60
2019-04-01T13:20:37.073Z,64.80
2019-04-01T13:22:57.216Z,66.00
2019-04-01T13:25:26.781Z,66.90
2019-04-01T13:27:57.534Z,65.80
2019-04-01T13:30:27.261Z,66.10
2019-04-01T13:32:57.079Z,66.10
2019-04-01T13:35:27.718Z,66.40
2019-04-01T13:37:59.661Z,66.70
2019-04-01T13:40:29.970Z,65.00
2019-04-01T13:43:04.489Z,65.40
2019-04-01T13:45:31.958Z,65.40
2019-04-01T13:48:01.302Z,64.80
2019-04-01T13:50:31.724Z,64.40
2019-04-01T13:53:02.344Z,63.70
2019-04-01T13:55:31.802Z,64.90
2019-04-01T13:58:01.197Z,63.60
2019-04-01T14:00:37.309Z,63.60
2019-04-01T14:03:07.088Z,62.20
2019-04-01T14:05:36.581Z,61.70
2019-04-01T14:08:06.220Z,63.50
2019-04-01T14:10:35.574Z,62.30
2019-04-01T14:13:05.152Z,61.30
2019-04-01T14:15:34.611Z,62.00
2019-04-01T14:18:04.055Z,61.20
2019-04-01T14:20:34.920Z,61.70
2019-04-01T14:23:04.269Z,62.70
2019-04-01T14:25:34.968Z,62.50
2019-04-01T14:28:04.518Z,62.20
2019-04-01T14:30:34.213Z,60.70
2019-04-01T14:33:03.676Z,59.40
2019-04-01T14:35:33.257Z,60.30
2019-04-01T14:38:02.657Z,60.50
2019-04-01T14:40:32.683Z,62.30
2019-04-01T14:43:02.369Z,61.50
2019-04-01T14:45:31.852Z,60.50
2019-04-01T14:48:01.616Z,59.50
2019-04-01T14:50:31.358Z,59.90
2019-04-01T14:53:00.891Z,59.30
2019-04-01T14:55:31.048Z,59.80
2019-04-01T14:58:00.547Z,59.70
2019-04-01T15:00:29.984Z,59.30
2019-04-01T15:02:59.451Z,59.60
2019-04-01T15:05:28.945Z,58.50
2019-04-01T15:07:58.315Z,58.60
2019-04-01T15:10:27.971Z,58.60
2019-04-01T15:13:05.019Z,58.40
2019-04-01T15:15:28.505Z,58.60
2019-04-01T15:17:57.995Z,58.20
2019-04-01T15:20:27.695Z,57.40
2019-04-01T15:22:57.167Z,59.50
2019-04-01T15:25:26.696Z,59.80
2019-04-01T15:27:58.250Z,60.00
2019-04-01T15:30:27.579Z,60.10
2019-04-01T15:32:57.298Z,59.70
2019-04-01T15:35:26.840Z,59.60
2019-04-01T15:37:56.492Z,60.10
2019-04-01T15:40:26.067Z,60.30
2019-04-01T15:42:55.585Z,59.80
2019-04-01T15:45:25.242Z,60.60
2019-04-01T15:47:54.857Z,59.60
2019-04-01T15:50:28.963Z,60.00
2019-04-01T15:52:55.726Z,60.60
2019-04-01T15:55:25.326Z,60.30
2019-04-01T15:57:54.706Z,60.40
2019-04-01T16:00:24.427Z,61.10
2019-04-01T16:02:53.955Z,59.90
2019-04-01T16:05:23.423Z,60.20
2019-04-01T16:07:52.802Z,60.70
2019-04-01T16:10:22.231Z,60.70
2019-04-01T16:12:51.626Z,60.40
2019-04-01T16:15:21.073Z,60.80
2019-04-01T16:17:53.706Z,60.30
2019-04-01T16:20:21.525Z,60.30
2019-04-01T16:22:51.299Z,60.70
2019-04-01T16:25:20.766Z,61.10
2019-04-01T16:27:50.214Z,61.50
2019-04-01T16:30:19.618Z,61.40
2019-04-01T16:32:49.085Z,59.80
2019-04-01T16:35:18.532Z,60.00
2019-04-01T16:37:48.098Z,61.10
2019-04-01T16:40:18.393Z,60.90
2019-04-01T16:42:48.459Z,61.70
2019-04-01T16:45:18.319Z,61.90
2019-04-01T16:47:48.662Z,62.10
2019-04-01T16:50:18.564Z,61.90
2019-04-01T16:52:48.298Z,62.70
2019-04-01T16:55:18.343Z,62.80
2019-04-01T16:57:48.346Z,62.50
2019-04-01T17:00:19.901Z,63.00
2019-04-01T17:02:50.231Z,62.80
2019-04-01T17:05:24.239Z,63.40
2019-04-01T17:07:53.644Z,63.20
2019-04-01T17:10:23.849Z,63.90
2019-04-01T17:12:53.373Z,64.40
2019-04-01T17:15:23.281Z,64.70
2019-04-01T17:17:52.701Z,65.30
2019-04-01T17:20:22.321Z,65.60
2019-04-01T17:22:51.809Z,65.90
2019-04-01T17:25:21.454Z,66.70
2019-04-01T17:27:50.889Z,67.10
2019-04-01T17:30:20.566Z,67.60
2019-04-01T17:32:50.077Z,68.30
2019-04-01T17:35:19.735Z,69.00
2019-04-01T17:37:49.462Z,69.80
2019-04-01T17:40:18.972Z,70.00
2019-04-01T17:42:48.465Z,70.50
2019-04-01T17:45:34.644Z,71.10
2019-04-01T17:48:05.173Z,71.90
2019-04-01T17:50:34.695Z,72.00
2019-04-01T17:53:06.620Z,72.80
2019-04-01T17:55:36.219Z,73.00
2019-04-01T17:58:06.722Z,73.60
2019-04-01T18:00:38.711Z,75.00
2019-04-01T18:03:09.440Z,74.60
2019-04-01T18:05:39.265Z,74.70
2019-04-01T18:08:08.733Z,76.40
2019-04-01T18:10:38.230Z,76.00
2019-04-01T18:13:07.652Z,76.60
2019-04-01T18:15:37.060Z,77.30
2019-04-01T18:18:06.536Z,77.80
2019-04-01T18:20:36.017Z,78.80
2019-04-01T18:23:05.520Z,79.30
2019-04-01T18:25:34.980Z,80.30
2019-04-01T18:28:04.594Z,81.10
2019-04-01T18:30:35.132Z,81.40
2019-04-01T18:33:04.663Z,82.00
2019-04-01T18:35:34.275Z,82.60
2019-04-01T18:38:03.700Z,82.30
2019-04-01T18:40:35.575Z,83.50
2019-04-01T18:43:04.323Z,84.10
2019-04-01T18:45:33.904Z,84.60
2019-04-01T18:48:03.384Z,85.20
2019-04-01T18:50:32.841Z,85.40
2019-04-01T18:53:02.355Z,86.10
2019-04-01T18:55:31.939Z,86.50
2019-04-01T18:58:01.435Z,86.80
2019-04-01T19:00:31.062Z,87.00
2019-04-01T19:03:00.556Z,87.20
2019-04-01T19:05:30.189Z,87.60
2019-04-01T19:07:59.660Z,88.40
2019-04-01T19:10:29.109Z,88.30
2019-04-01T19:13:05.616Z,88.90
2019-04-01T19:15:30.978Z,89.50
2019-04-01T19:18:00.964Z,89.70
2019-04-01T19:20:30.672Z,90.00
2019-04-01T19:23:01.155Z,90.30
2019-04-01T19:25:31.507Z,90.30
2019-04-01T19:28:00.988Z,90.60
2019-04-01T19:30:30.523Z,90.70
2019-04-01T19:33:00.030Z,90.60
2019-04-01T19:35:29.609Z,91.00
2019-04-01T19:37:59.098Z,91.20
2019-04-01T19:40:28.642Z,91.20
2019-04-01T19:42:58.166Z,91.50
2019-04-01T19:45:27.939Z,92.20
2019-04-01T19:47:57.513Z,92.70
2019-04-01T19:50:26.991Z,93.00
2019-04-01T19:52:56.474Z,93.10
2019-04-01T19:55:26.089Z,93.80
2019-04-01T19:57:56.290Z,94.10
2019-04-01T20:00:28.223Z,94.40
2019-04-01T20:02:57.426Z,94.70
2019-04-01T20:05:26.909Z,95.00
2019-04-01T20:07:56.402Z,94.90
2019-04-01T20:10:28.238Z,95.20
2019-04-01T20:12:57.325Z,95.50
2019-04-01T20:15:26.920Z,95.80
2019-04-01T20:17:56.337Z,96.00
2019-04-01T20:20:26.048Z,96.70
2019-04-01T20:22:55.481Z,96.50
2019-04-01T20:25:25.056Z,96.70
2019-04-01T20:27:54.589Z,97.00
2019-04-01T20:30:24.991Z,97.20
2019-04-01T20:32:54.521Z,97.60
2019-04-01T20:35:24.175Z,97.60
2019-04-01T20:37:53.678Z,98.00
2019-04-01T20:40:24.311Z,98.10
2019-04-01T20:42:54.194Z,98.40
2019-04-01T20:45:23.832Z,98.60
2019-04-01T20:47:53.379Z,98.80
2019-04-01T20:50:22.883Z,99.30
2019-04-01T20:52:52.389Z,99.30
2019-04-01T20:55:21.923Z,99.50
2019-04-01T20:57:51.413Z,99.70
2019-04-01T21:00:20.926Z,99.90
2019-04-01T21:02:50.395Z,99.90
2019-04-01T21:05:19.777Z,99.90
2019-04-01T21:07:49.176Z,99.90
2019-04-01T21:10:18.832Z,99.90
2019-04-01T21:12:48.321Z,99.90
2019-04-01T21:15:19.628Z,99.90
2019-04-01T21:17:49.161Z,99.90
2019-04-01T21:20:18.551Z,99.90
2019-04-01T21:22:48.003Z,99.90
2019-04-01T21:25:17.410Z,99.90
2019-04-01T21:27:46.871Z,99.90
2019-04-01T21:30:16.885Z,99.90
2019-04-01T21:32:46.294Z,99.90
2019-04-01T21:35:15.821Z,99.90
2019-04-01T21:37:45.180Z,99.90
2019-04-01T21:40:15.300Z,99.90
2019-04-01T21:42:44.743Z,99.90
2019-04-01T21:45:16.047Z,99.90
2019-04-01T21:47:45.470Z,99.90
2019-04-01T21:50:15.124Z,99.90
2019-04-01T21:52:44.615Z,99.90
2019-04-01T21:55:14.082Z,99.90
2019-04-01T21:57:43.537Z,99.90
2019-04-01T22:00:18.029Z,99.90
2019-04-01T22:02:46.926Z,99.90
2019-04-01T22:05:16.642Z,99.90
2019-04-01T22:07:46.014Z,99.90
2019-04-01T22:10:15.616Z,99.90
2019-04-01T22:12:45.096Z,99.90
2019-04-01T22:15:14.536Z,99.90
2019-04-01T22:17:43.986Z,99.90
2019-04-01T22:20:13.475Z,99.90
2019-04-01T22:22:42.917Z,99.90
2019-04-01T22:25:12.402Z,99.90
2019-04-01T22:27:41.886Z,99.90
2019-04-01T22:30:11.711Z,99.90
2019-04-01T22:32:41.236Z,99.90
2019-04-01T22:35:11.795Z,99.90
2019-04-01T22:37:41.237Z,99.90
2019-04-01T22:40:10.853Z,99.90
2019-04-01T22:42:40.252Z,99.90
2019-04-01T22:45:09.706Z,99.90
2019-04-01T22:47:39.128Z,99.90
2019-04-01T22:50:10.127Z,99.90
2019-04-01T22:52:42.003Z,99.90
2019-04-01T22:55:11.012Z,99.90
2019-04-01T22:57:40.468Z,99.90
2019-04-01T23:00:09.896Z,99.90
2019-04-01T23:02:39.290Z,99.90
2019-04-01T23:05:08.943Z,99.90
2019-04-01T23:07:38.382Z,99.90
2019-04-01T23:10:08.508Z,99.90
2019-04-01T23:12:37.925Z,99.90
2019-04-01T23:15:08.750Z,99.90
2019-04-01T23:17:38.747Z,99.90
2019-04-01T23:20:09.006Z,99.90
2019-04-01T23:22:38.422Z,99.90
2019-04-01T23:25:08.095Z,99.90
2019-04-01T23:27:37.478Z,99.90
2019-04-01T23:30:08.654Z,99.90
2019-04-01T23:32:38.038Z,99.90
2019-04-01T23:35:07.727Z,99.90
2019-04-01T23:37:38.296Z,99.90
2019-04-01T23:40:08.949Z,99.90
2019-04-01T23:42:38.412Z,99.90
2019-04-01T23:45:08.325Z,99.90
2019-04-01T23:47:37.699Z,99.90
2019-04-01T23:50:09.097Z,99.90
2019-04-01T23:52:38.957Z,99.90
2019-04-01T23:55:08.641Z,99.90
2019-04-01T23:57:38.036Z,99.90
